Bruni, Texas
Current Conditions -  °F | °C
As of 6:35 PM on Sunday 21 Dec 2014 (Local Time) from KHBV Reporting Station
Haze Haze  
Wind Chill: 59°   Ceiling: 2300
Heat Index: 59°   Visibility: 5mi
Dew Point: 55°   Wind: 6mph
Humidity: 86%   Direction: 120°ESE
Pressure: 29.92"   Gusts: NA
Location:  27.43°N, 98.84°W
Report Text: KHBV 220035Z AUTO 12005KT 5SM BR SCT012 BKN023 15/13 A2992 RMK AO2 T01490126
Loading
Personal Weather Stations






























Interactive Weather Map New forecast layout! Learn more

10-Day Weather Forecast

Advertisements
Track Severe Weather on mobile